logo
Search for airport 
image banner adimage banner adimage banner ad
image banner ad

VLBANK - Ban Khoksa

Located in , Lao People's Democratic Republic

ICAO - , IATA -

Data provided by Airmate  

General information

Coordinates: N18°4'4" E102°54'38"
Elevation is 593 feet MSL.
Magnetic variation is -1° East
View others Airports in Vientiane

Operational data

Special qualification required
Current time UTC:
Current local time:
TAF: TAF VLVT 151700Z 1518/1618 09004KT 8000 SCT016 BKN050
View NOTAMs / SUP AIP / TFR affecting this airport [VIEW]
Communications frequencies: [VIEW]

Runways:

RWY identifierQFULength (ft)Width (ft)SurfaceLDA (ft)
16158°226748ASPH
34338°226748ASPH

Airport contact information

Address: Lao People's Democratic Republic

Satellite view of VLBANK